Wan Hai 282 — 9VJM6 — position and weather

sailwx.info

Track history (hours):
 
Tides and Currents Weather Stations Pressure Air Temp Water Temp Dewpoint Dewpoint Depression Visibility Wind Speed Wind Dir Waves Ship Positions

Wan Hai 282

Last reported at 2018-Jan-19 21:07 UTC. Time now 2018-Jan-24 05:54 UTC.
Position N 22°31' E 119°58'.

Length 182 m; draft 9.6 m.

Type: Ship. MMSI: 565647000.

Date/timePositionNaut miles runAvg speedWind from/ knotsBaromVisibWave heightAir tempDewpointWater temp
2018-Jan-19 21:07N 22°31' E 119°58'215.6
2018-Jan-19 20:59N 22°31' E 120°00'815.9
2018-Jan-19 20:30N 22°32' E 120°08'714.0
2018-Jan-19 20:00N 22°33' E 120°16'3 6.4
2018-Jan-19 19:30N 22°34' E 120°19'1 2.0
2018-Jan-19 18:55N 22°35' E 120°18'0 0.0
2018-Jan-19 18:28N 22°35' E 120°18'0 0.1
2018-Jan-19 17:58N 22°35' E 120°18'0 0.1
2018-Jan-19 17:28N 22°35' E 120°18'0 0.1
2018-Jan-19 17:01N 22°35' E 120°18'0 0.0
2018-Jan-19 16:28N 22°35' E 120°18'0 0.0
2018-Jan-19 15:58N 22°35' E 120°18'0 0.0
2018-Jan-19 15:28N 22°35' E 120°18'0 0.0
2018-Jan-19 15:01N 22°35' E 120°18'0 0.0
2018-Jan-19 14:25N 22°35' E 120°18'0 0.0
2018-Jan-19 13:58N 22°35' E 120°18'0 0.0
2018-Jan-19 13:31N 22°35' E 120°18'0 0.0
2018-Jan-19 12:58N 22°35' E 120°18'0 0.0
2018-Jan-19 12:28N 22°35' E 120°18'0 0.0
2018-Jan-19 11:58N 22°35' E 120°18'0 0.0
2018-Jan-19 11:28N 22°35' E 120°18'0 0.0
2018-Jan-19 10:58N 22°35' E 120°18'0 0.0
2018-Jan-19 10:22N 22°35' E 120°18'0 0.0
2018-Jan-19 09:57N 22°35' E 120°18'0 0.0
2018-Jan-19 09:28N 22°35' E 120°18'0 0.0
2018-Jan-19 08:58N 22°35' E 120°18'0 0.1
2018-Jan-19 08:28N 22°35' E 120°18'0 0.0
2018-Jan-19 08:01N 22°35' E 120°18'0 0.0
2018-Jan-19 07:28N 22°35' E 120°18'0 0.1
2018-Jan-19 07:00N 22°35' E 120°18'3 6.9
2018-Jan-19 06:31N 22°37' E 120°16'510.1
2018-Jan-19 06:00N 22°40' E 120°11'815.0
2018-Jan-19 05:30N 22°46' E 120°06'816.7
2018-Jan-19 05:01N 22°53' E 120°02'816.3
2018-Jan-19 04:30N 23°00' E 119°58'  
2018-Jan-11 21:10N 34°24' E 134°16'516.7
2018-Jan-11 20:53N 34°25' E 134°22'616.3
2018-Jan-11 20:31N 34°27' E 134°29'816.4
2018-Jan-11 20:01N 34°30' E 134°38'816.6
2018-Jan-11 19:31N 34°33' E 134°47'816.4
2018-Jan-11 19:01N 34°37' E 134°56'612.4
2018-Jan-11 18:30N 34°36' E 135°04'611.3
2018-Jan-11 18:00N 34°36' E 135°11'5 9.5
2018-Jan-11 17:30N 34°38' E 135°16'3 6.6
2018-Jan-11 17:00N 34°41' E 135°15'0 0.1
2018-Jan-11 16:30N 34°41' E 135°15'0 0.0
2018-Jan-11 15:57N 34°41' E 135°15'0 0.0
2018-Jan-11 15:30N 34°41' E 135°15'0 0.0
2018-Jan-11 15:00N 34°41' E 135°15'0 0.0
2018-Jan-11 14:30N 34°41' E 135°15'0 0.0
2018-Jan-11 13:57N 34°41' E 135°15'0 0.0
2018-Jan-11 13:30N 34°41' E 135°15'0 0.0
2018-Jan-11 13:00N 34°41' E 135°15'0 0.0
2018-Jan-11 12:30N 34°41' E 135°15'0 0.0
2018-Jan-11 12:00N 34°41' E 135°15'0 0.0
2018-Jan-11 11:30N 34°41' E 135°15'0 0.0
2018-Jan-11 11:00N 34°41' E 135°15'0 0.0
2018-Jan-11 10:30N 34°41' E 135°15'2 4.9
2018-Jan-11 10:01N 34°39' E 135°16'510.3
2018-Jan-11 09:31N 34°38' E 135°22'3 5.2
2018-Jan-11 09:01N 34°39' E 135°26'0 0.0
2018-Jan-11 08:30N 34°39' E 135°26'0 0.0
2018-Jan-11 08:00N 34°39' E 135°26'0 0.0
2018-Jan-11 07:30N 34°39' E 135°26'0 0.0
2018-Jan-11 07:00N 34°39' E 135°26'0 0.0
2018-Jan-11 06:30N 34°39' E 135°26'0 0.0
2018-Jan-11 06:00N 34°39' E 135°26'0 0.0
2018-Jan-11 05:30N 34°39' E 135°26'0 0.0
2018-Jan-11 04:58N 34°39' E 135°26'0 0.0
2018-Jan-11 04:31N 34°39' E 135°26'0 0.0
2018-Jan-11 04:01N 34°39' E 135°26'0 0.0
2018-Jan-11 03:31N 34°39' E 135°26'0 0.0
2018-Jan-11 03:01N 34°39' E 135°26'0 0.0
2018-Jan-11 02:28N 34°39' E 135°26'0 0.0
2018-Jan-11 02:01N 34°39' E 135°26'0 0.0
2018-Jan-11 01:28N 34°39' E 135°26'0 0.0
2018-Jan-11 00:58N 34°39' E 135°26'0 0.1
2018-Jan-11 00:31N 34°39' E 135°26'2 4.9
2018-Jan-11 00:00N 34°38' E 135°23'612.5
2018-Jan-10 23:30N 34°33' E 135°18'816.0
2018-Jan-10 23:00N 34°28' E 135°11'816.2
2018-Jan-10 22:30N 34°22' E 135°04'612.9
2018-Jan-10 22:01N 34°16' E 134°60'713.7
2018-Jan-10 21:31N 34°10' E 134°59'4 9.0
2018-Jan-10 21:01N 34°05' E 134°58'815.9
2018-Jan-10 20:31N 33°57' E 134°56'916.1
2018-Jan-10 19:57N 33°49' E 134°53'1415.9
2018-Jan-10 19:05N 33°37' E 134°43'  
Track history (hours):
 
Tides and Currents Weather Stations Pressure Air Temp Water Temp Dewpoint Dewpoint Depression Visibility Wind Speed Wind Dir Waves Ship Positions

Wan Hai 282

Last reported at 2018-Jan-19 21:07 UTC. Time now 2018-Jan-24 05:54 UTC.
Position N 22°31' E 119°58'.

Length 182 m; draft 9.6 m.

Type: Ship. MMSI: 565647000.

Date/timePositionNaut miles runAvg speedWind from/ knotsBaromVisibWave heightAir tempDewpointWater temp
2018-Jan-19 21:07N 22°31' E 119°58'215.6
2018-Jan-19 20:59N 22°31' E 120°00'815.9
2018-Jan-19 20:30N 22°32' E 120°08'714.0
2018-Jan-19 20:00N 22°33' E 120°16'3 6.4
2018-Jan-19 19:30N 22°34' E 120°19'1 2.0
2018-Jan-19 18:55N 22°35' E 120°18'0 0.0
2018-Jan-19 18:28N 22°35' E 120°18'0 0.1
2018-Jan-19 17:58N 22°35' E 120°18'0 0.1
2018-Jan-19 17:28N 22°35' E 120°18'0 0.1
2018-Jan-19 17:01N 22°35' E 120°18'0 0.0
2018-Jan-19 16:28N 22°35' E 120°18'0 0.0
2018-Jan-19 15:58N 22°35' E 120°18'0 0.0
2018-Jan-19 15:28N 22°35' E 120°18'0 0.0
2018-Jan-19 15:01N 22°35' E 120°18'0 0.0
2018-Jan-19 14:25N 22°35' E 120°18'0 0.0
2018-Jan-19 13:58N 22°35' E 120°18'0 0.0
2018-Jan-19 13:31N 22°35' E 120°18'0 0.0
2018-Jan-19 12:58N 22°35' E 120°18'0 0.0
2018-Jan-19 12:28N 22°35' E 120°18'0 0.0
2018-Jan-19 11:58N 22°35' E 120°18'0 0.0
2018-Jan-19 11:28N 22°35' E 120°18'0 0.0
2018-Jan-19 10:58N 22°35' E 120°18'0 0.0
2018-Jan-19 10:22N 22°35' E 120°18'0 0.0
2018-Jan-19 09:57N 22°35' E 120°18'0 0.0
2018-Jan-19 09:28N 22°35' E 120°18'0 0.0
2018-Jan-19 08:58N 22°35' E 120°18'0 0.1
2018-Jan-19 08:28N 22°35' E 120°18'0 0.0
2018-Jan-19 08:01N 22°35' E 120°18'0 0.0
2018-Jan-19 07:28N 22°35' E 120°18'0 0.1
2018-Jan-19 07:00N 22°35' E 120°18'3 6.9
2018-Jan-19 06:31N 22°37' E 120°16'510.1
2018-Jan-19 06:00N 22°40' E 120°11'815.0
2018-Jan-19 05:30N 22°46' E 120°06'816.7
2018-Jan-19 05:01N 22°53' E 120°02'816.3
2018-Jan-19 04:30N 23°00' E 119°58'  
2018-Jan-11 21:10N 34°24' E 134°16'516.7
2018-Jan-11 20:53N 34°25' E 134°22'616.3
2018-Jan-11 20:31N 34°27' E 134°29'816.4
2018-Jan-11 20:01N 34°30' E 134°38'816.6
2018-Jan-11 19:31N 34°33' E 134°47'816.4
2018-Jan-11 19:01N 34°37' E 134°56'612.4
2018-Jan-11 18:30N 34°36' E 135°04'611.3
2018-Jan-11 18:00N 34°36' E 135°11'5 9.5
2018-Jan-11 17:30N 34°38' E 135°16'3 6.6
2018-Jan-11 17:00N 34°41' E 135°15'0 0.1
2018-Jan-11 16:30N 34°41' E 135°15'0 0.0
2018-Jan-11 15:57N 34°41' E 135°15'0 0.0
2018-Jan-11 15:30N 34°41' E 135°15'0 0.0
2018-Jan-11 15:00N 34°41' E 135°15'0 0.0
2018-Jan-11 14:30N 34°41' E 135°15'0 0.0
2018-Jan-11 13:57N 34°41' E 135°15'0 0.0
2018-Jan-11 13:30N 34°41' E 135°15'0 0.0
2018-Jan-11 13:00N 34°41' E 135°15'0 0.0
2018-Jan-11 12:30N 34°41' E 135°15'0 0.0
2018-Jan-11 12:00N 34°41' E 135°15'0 0.0
2018-Jan-11 11:30N 34°41' E 135°15'0 0.0
2018-Jan-11 11:00N 34°41' E 135°15'0 0.0
2018-Jan-11 10:30N 34°41' E 135°15'2 4.9
2018-Jan-11 10:01N 34°39' E 135°16'510.3
2018-Jan-11 09:31N 34°38' E 135°22'3 5.2
2018-Jan-11 09:01N 34°39' E 135°26'0 0.0
2018-Jan-11 08:30N 34°39' E 135°26'0 0.0
2018-Jan-11 08:00N 34°39' E 135°26'0 0.0
2018-Jan-11 07:30N 34°39' E 135°26'0 0.0
2018-Jan-11 07:00N 34°39' E 135°26'0 0.0
2018-Jan-11 06:30N 34°39' E 135°26'0 0.0
2018-Jan-11 06:00N 34°39' E 135°26'0 0.0
2018-Jan-11 05:30N 34°39' E 135°26'0 0.0
2018-Jan-11 04:58N 34°39' E 135°26'0 0.0
2018-Jan-11 04:31N 34°39' E 135°26'0 0.0
2018-Jan-11 04:01N 34°39' E 135°26'0 0.0
2018-Jan-11 03:31N 34°39' E 135°26'0 0.0
2018-Jan-11 03:01N 34°39' E 135°26'0 0.0
2018-Jan-11 02:28N 34°39' E 135°26'0 0.0
2018-Jan-11 02:01N 34°39' E 135°26'0 0.0
2018-Jan-11 01:28N 34°39' E 135°26'0 0.0
2018-Jan-11 00:58N 34°39' E 135°26'0 0.1
2018-Jan-11 00:31N 34°39' E 135°26'2 4.9
2018-Jan-11 00:00N 34°38' E 135°23'612.5
2018-Jan-10 23:30N 34°33' E 135°18'816.0
2018-Jan-10 23:00N 34°28' E 135°11'816.2
2018-Jan-10 22:30N 34°22' E 135°04'612.9
2018-Jan-10 22:01N 34°16' E 134°60'713.7
2018-Jan-10 21:31N 34°10' E 134°59'4 9.0
2018-Jan-10 21:01N 34°05' E 134°58'815.9
2018-Jan-10 20:31N 33°57' E 134°56'916.1
2018-Jan-10 19:57N 33°49' E 134°53'1415.9
2018-Jan-10 19:05N 33°37' E 134°43'  

Dump ship's entire track history